Fort Dodge Regional Airport Fort Dodge US
ICAO: KFOD
IATA: FOD
Category: Medium
Scheduled Services: Yes

Elevation: 1156 ft
TransAlt. 18000 ft.

Airport Communications:
AWOS 3:118.775
MINNEAPOLIS CNTR:134
RDO:122.3
CTAF/UNICOM:122.95

KFOD Zoom In..

If Map Doesn't Load, Click Here

Runways:

(A) RW 06 length 6547 ft width 150 ft
ILS 109.10 / hdg 63

(B) RW 12 length 5301 ft width 100 ft
---- / hdg 125

(C) RW 24 length 6547 ft width 150 ft
---- / hdg 243

(D) RW 30 length 5301 ft width 100 ft
---- / hdg 305

Location; KFOD
Day. 23 / Time. 21.56 Zulu
* Altimeter: 29.96
* Temperature: 24° c. 75.2°f.
* Wind from: 150° Speed 12 kn.
Dewpoint: 13° c.
Visibility: 10 Statute Miles.
Clouds: Clear (automated report).

KFOD 232156Z AUTO 15012KT 10SM CLR 24/13 A2996 RMK AO2 SLP167 T02440133


Wind From 150°
Speed 12 kn.

 
 
jpsmedia.com for Web Design worldairports.se 2018   terms of use